Time;durP1;ratioP1;P1;durP2;ratioP2;P2;SDS_P1;SDS_P2;PMS_P1;PMS_P2;Temp;Humidity;BMP_temperature;BMP_pressure;BME280_temperature;BME280_humidity;BME280_pressure;Samples;Min_cycle;Max_cycle;Signal;HPM_P1;HPM_P2
2021/05/16 00:00:30;;;;;;;;;;;10.90;90.70;;;;;;5054317;28;20503;-75
2021/05/16 00:02:56;;;;;;;0.60;0.60;;;10.90;90.50;;;;;;5053930;28;19905;-75
2021/05/16 00:05:25;;;;;;;0.65;0.65;;;11.00;90.60;;;;;;5053909;28;20021;-75
2021/05/16 00:07:52;;;;;;;0.60;0.60;;;11.00;90.60;;;;;;5053313;28;20024;-75
2021/05/16 00:10:20;;;;;;;0.80;0.80;;;11.00;90.60;;;;;;5053460;28;20540;-75
2021/05/16 00:12:46;;;;;;;1.08;0.98;;;11.00;90.60;;;;;;5056920;28;20024;-75
2021/05/16 00:15:16;;;;;;;0.93;0.90;;;11.00;90.70;;;;;;5062761;28;20028;-75
2021/05/16 00:17:42;;;;;;;1.13;0.90;;;11.10;90.70;;;;;;5073443;28;20117;-76
2021/05/16 00:20:11;;;;;;;1.40;1.10;;;11.10;90.60;;;;;;5057259;28;20071;-75
2021/05/16 00:22:37;;;;;;;1.50;0.95;;;11.10;90.60;;;;;;5053097;28;20104;-75
2021/05/16 00:25:07;;;;;;;0.90;0.90;;;11.10;90.70;;;;;;5053387;28;20021;-75
2021/05/16 00:27:34;;;;;;;1.00;0.80;;;11.10;90.70;;;;;;5053486;28;20056;-76
2021/05/16 00:30:01;;;;;;;0.73;0.70;;;11.20;90.70;;;;;;5053165;28;20496;-75
2021/05/16 00:32:26;;;;;;;1.85;1.45;;;11.20;90.70;;;;;;5053423;28;20028;-75
2021/05/16 00:34:52;;;;;;;0.80;0.80;;;11.20;90.70;;;;;;5035018;28;20480;-76
2021/05/16 00:37:17;;;;;;;1.42;1.10;;;11.20;90.80;;;;;;5053388;28;20044;-75
2021/05/16 00:39:43;;;;;;;1.23;1.00;;;11.20;90.70;;;;;;5053324;28;20082;-75
2021/05/16 00:42:09;;;;;;;1.20;0.93;;;11.20;90.80;;;;;;5053404;28;20163;-75
2021/05/16 00:44:34;;;;;;;1.40;0.93;;;11.20;90.70;;;;;;5053243;28;20029;-75
2021/05/16 00:47:00;;;;;;;2.63;1.92;;;11.30;90.80;;;;;;5052012;28;20017;-75
2021/05/16 00:49:25;;;;;;;1.13;0.88;;;11.20;90.80;;;;;;5052720;28;20404;-75
2021/05/16 00:51:51;;;;;;;1.55;1.33;;;11.20;90.80;;;;;;5056298;28;20473;-75
2021/05/16 00:54:17;;;;;;;1.20;1.00;;;11.20;90.80;;;;;;5053114;28;20368;-74
2021/05/16 00:56:43;;;;;;;1.05;1.00;;;11.20;90.80;;;;;;5053083;28;20078;-75
2021/05/16 00:59:08;;;;;;;2.35;1.08;;;11.30;90.90;;;;;;5053326;28;20025;-74
2021/05/16 01:01:34;;;;;;;1.45;1.20;;;11.30;90.90;;;;;;5053041;28;20021;-75
2021/05/16 01:03:59;;;;;;;1.30;0.95;;;11.30;90.90;;;;;;5034692;28;20028;-75
2021/05/16 01:06:25;;;;;;;0.90;0.85;;;11.30;90.90;;;;;;5052967;28;20029;-75
2021/05/16 01:08:53;;;;;;;1.00;0.95;;;11.30;90.90;;;;;;5053091;28;20025;-76
2021/05/16 01:11:19;;;;;;;1.38;1.27;;;11.30;90.90;;;;;;5052978;28;20033;-75
2021/05/16 01:13:48;;;;;;;0.95;0.77;;;11.30;90.90;;;;;;5053057;28;20488;-76
2021/05/16 01:16:14;;;;;;;1.40;1.30;;;11.30;90.90;;;;;;5053140;28;20032;-76
2021/05/16 01:18:39;;;;;;;2.33;1.25;;;11.20;91.00;;;;;;5052414;28;20025;-76
2021/05/16 01:21:07;;;;;;;1.88;1.45;;;11.20;91.10;;;;;;5052896;28;20033;-76
2021/05/16 01:23:41;;;;;;;1.65;0.85;;;11.10;91.10;;;;;;5052893;28;20021;-76
2021/05/16 01:26:07;;;;;;;1.58;1.30;;;11.00;91.20;;;;;;5053223;28;20071;-78
2021/05/16 01:28:32;;;;;;;1.10;0.90;;;10.90;91.30;;;;;;5052987;28;20021;-77
2021/05/16 01:30:58;;;;;;;1.52;1.05;;;10.90;91.40;;;;;;5054946;28;20087;-77
2021/05/16 01:33:23;;;;;;;1.10;1.00;;;10.90;91.40;;;;;;5056189;28;20025;-76
2021/05/16 01:35:49;;;;;;;0.93;0.93;;;10.90;91.40;;;;;;5056630;28;20152;-76
2021/05/16 01:38:14;;;;;;;1.08;0.98;;;10.90;91.40;;;;;;5056632;28;20017;-76
2021/05/16 01:40:40;;;;;;;0.90;0.90;;;11.00;91.30;;;;;;5055317;28;20493;-76
2021/05/16 01:43:11;;;;;;;0.93;0.90;;;11.00;91.30;;;;;;5056511;28;20017;-76
2021/05/16 01:45:37;;;;;;;1.25;0.90;;;11.00;91.30;;;;;;5056550;28;20048;-76
2021/05/16 01:48:03;;;;;;;1.05;0.93;;;11.00;91.30;;;;;;5055964;28;20021;-76
2021/05/16 01:50:33;;;;;;;0.90;0.90;;;11.00;91.30;;;;;;5056065;28;20061;-77
2021/05/16 01:53:02;;;;;;;1.83;0.88;;;11.00;91.40;;;;;;5056418;28;20346;-76
2021/05/16 01:55:28;;;;;;;0.73;0.73;;;11.00;91.40;;;;;;5056287;28;20032;-76
2021/05/16 01:57:54;;;;;;;0.77;0.77;;;11.00;91.40;;;;;;5056392;28;20344;-76
2021/05/16 02:00:31;;;;;;;0.50;0.50;;;11.00;91.50;;;;;;5056276;28;20152;-76
2021/05/16 02:02:57;;;;;;;0.88;0.60;;;11.00;91.50;;;;;;5055532;28;20025;-76
2021/05/16 02:05:23;;;;;;;1.17;1.08;;;11.10;91.60;;;;;;5056095;28;20029;-76
2021/05/16 02:07:50;;;;;;;1.02;0.93;;;11.00;91.50;;;;;;5056119;28;20025;-76
2021/05/16 02:10:17;;;;;;;0.70;0.70;;;11.10;91.60;;;;;;5055879;28;20481;-76
2021/05/16 02:12:43;;;;;;;1.63;1.20;;;11.10;91.60;;;;;;5056042;28;20469;-77
2021/05/16 02:15:11;;;;;;;1.02;0.90;;;11.00;91.60;;;;;;5055768;28;20039;-77
2021/05/16 02:17:39;;;;;;;1.17;1.02;;;11.00;91.70;;;;;;5055259;28;20649;-77
2021/05/16 02:20:07;;;;;;;1.13;0.93;;;11.00;91.70;;;;;;5054492;28;20021;-76
2021/05/16 02:22:32;;;;;;;1.20;0.98;;;11.00;91.80;;;;;;5055654;28;20489;-76
2021/05/16 02:24:58;;;;;;;1.55;1.10;;;11.00;91.80;;;;;;5055759;28;20036;-76
2021/05/16 02:27:23;;;;;;;1.70;1.23;;;10.90;91.80;;;;;;5055592;28;20041;-76
2021/05/16 02:29:49;;;;;;;1.15;1.00;;;11.00;91.90;;;;;;5055610;28;20052;-76
2021/05/16 02:32:14;;;;;;;1.10;1.00;;;11.00;91.90;;;;;;5053929;28;20028;-76
2021/05/16 02:34:40;;;;;;;1.05;0.90;;;11.00;91.90;;;;;;5055532;28;20021;-75
2021/05/16 02:37:05;;;;;;;1.95;1.17;;;11.00;91.90;;;;;;5055490;28;20017;-76
2021/05/16 02:39:31;;;;;;;1.20;1.10;;;11.00;92.00;;;;;;5054279;28;20013;-76
2021/05/16 02:41:57;;;;;;;0.90;0.85;;;11.00;91.90;;;;;;5054326;28;20472;-76
2021/05/16 02:44:22;;;;;;;1.83;1.10;;;10.90;92.00;;;;;;5055300;28;20029;-77
2021/05/16 02:46:48;;;;;;;1.63;1.00;;;10.90;92.10;;;;;;5054882;28;20025;-76
2021/05/16 02:49:13;;;;;;;1.13;0.98;;;10.90;92.10;;;;;;5055234;28;20048;-76
2021/05/16 02:51:39;;;;;;;1.13;0.90;;;10.90;92.10;;;;;;5056759;28;20037;-76
2021/05/16 02:54:05;;;;;;;1.52;1.20;;;10.90;92.20;;;;;;5056813;28;20025;-76
2021/05/16 02:56:31;;;;;;;0.93;0.93;;;10.90;92.10;;;;;;5055023;28;20370;-76
2021/05/16 02:58:59;;;;;;;1.13;1.00;;;11.00;92.20;;;;;;5055003;28;20024;-76
2021/05/16 03:01:24;;;;;;;1.25;0.95;;;11.00;92.20;;;;;;5053282;28;20017;-76
2021/05/16 03:03:50;;;;;;;1.55;1.23;;;11.00;92.20;;;;;;5055030;28;20071;-76
2021/05/16 03:06:15;;;;;;;1.58;1.20;;;11.00;92.10;;;;;;5055024;28;20028;-76
2021/05/16 03:08:41;;;;;;;2.05;1.80;;;11.00;92.20;;;;;;5054831;28;20488;-77
2021/05/16 03:11:07;;;;;;;1.38;1.27;;;11.00;92.20;;;;;;5054729;28;20036;-76
2021/05/16 03:13:32;;;;;;;1.45;0.90;;;11.00;92.20;;;;;;5054797;28;20029;-76
2021/05/16 03:15:58;;;;;;;0.60;0.60;;;11.00;92.20;;;;;;5054483;28;20465;-76
2021/05/16 03:18:24;;;;;;;1.13;0.93;;;11.00;92.30;;;;;;5054765;28;20024;-76
2021/05/16 03:20:50;;;;;;;0.93;0.80;;;11.00;92.30;;;;;;5054682;28;20039;-76
2021/05/16 03:23:15;;;;;;;1.08;0.75;;;11.00;92.20;;;;;;5054644;28;20017;-75
2021/05/16 03:25:41;;;;;;;1.13;0.85;;;11.00;92.30;;;;;;5036709;28;20029;-76
2021/05/16 03:28:07;;;;;;;1.20;1.10;;;11.10;92.20;;;;;;5054513;28;20024;-76
2021/05/16 03:30:33;;;;;;;0.75;0.70;;;11.10;92.20;;;;;;5054121;28;20043;-75
2021/05/16 03:32:59;;;;;;;1.48;1.02;;;11.10;92.20;;;;;;5054529;28;20028;-75
2021/05/16 03:35:25;;;;;;;0.82;0.82;;;11.10;92.20;;;;;;5054592;28;20104;-76
2021/05/16 03:37:51;;;;;;;0.82;0.60;;;11.10;92.30;;;;;;5054647;28;20048;-76
2021/05/16 03:40:16;;;;;;;1.20;1.00;;;11.10;92.30;;;;;;5054266;28;20048;-76
2021/05/16 03:42:42;;;;;;;0.95;0.88;;;11.10;92.30;;;;;;5054095;28;20074;-76
2021/05/16 03:45:10;;;;;;;0.80;0.80;;;11.00;92.30;;;;;;5053797;28;20032;-75
2021/05/16 03:47:38;;;;;;;1.35;0.95;;;11.00;92.30;;;;;;5054049;28;20036;-76
2021/05/16 03:50:08;;;;;;;1.75;0.85;;;11.00;92.30;;;;;;5053849;28;20049;-75
2021/05/16 03:52:34;;;;;;;0.88;0.68;;;11.00;92.30;;;;;;5054020;28;20063;-76
2021/05/16 03:55:00;;;;;;;1.65;0.90;;;11.00;92.30;;;;;;5054045;28;20036;-76
2021/05/16 03:57:25;;;;;;;1.25;0.73;;;11.00;92.30;;;;;;5053921;28;20385;-76
2021/05/16 03:59:51;;;;;;;2.10;0.98;;;10.90;92.30;;;;;;5053283;28;20358;-75
2021/05/16 04:02:17;;;;;;;1.73;0.98;;;10.90;92.20;;;;;;5054018;28;20017;-76
2021/05/16 04:04:43;;;;;;;0.82;0.80;;;10.90;92.30;;;;;;5052536;28;20031;-75
2021/05/16 04:07:08;;;;;;;1.70;0.95;;;10.90;92.30;;;;;;5053893;28;20053;-76
2021/05/16 04:09:34;;;;;;;1.05;1.00;;;10.90;92.30;;;;;;5053840;28;20029;-76
2021/05/16 04:12:00;;;;;;;1.17;1.02;;;10.90;92.30;;;;;;5053587;28;20116;-75
2021/05/16 04:14:27;;;;;;;1.23;1.00;;;10.90;92.30;;;;;;5053236;28;20055;-75
2021/05/16 04:16:53;;;;;;;1.13;1.02;;;10.90;92.30;;;;;;5053702;28;20415;-75
2021/05/16 04:19:19;;;;;;;1.40;1.02;;;10.90;92.30;;;;;;5053585;28;20059;-75
2021/05/16 04:21:44;;;;;;;0.82;0.82;;;11.00;92.30;;;;;;5053576;28;20029;-75
2021/05/16 04:24:10;;;;;;;1.83;1.48;;;11.00;92.30;;;;;;5053489;28;20025;-75
2021/05/16 04:26:36;;;;;;;1.38;0.90;;;11.10;92.30;;;;;;5053285;28;20526;-76
2021/05/16 04:29:02;;;;;;;1.83;1.20;;;11.00;92.20;;;;;;5053044;28;20017;-75
2021/05/16 04:31:28;;;;;;;1.20;1.10;;;11.00;92.20;;;;;;5053415;28;20029;-76
2021/05/16 04:33:53;;;;;;;1.00;1.00;;;11.00;92.20;;;;;;5053427;28;20074;-75
2021/05/16 04:36:19;;;;;;;2.78;1.30;;;11.00;92.30;;;;;;5053286;28;20021;-75
2021/05/16 04:38:46;;;;;;;3.40;1.30;;;11.00;92.20;;;;;;5053232;28;20032;-75
2021/05/16 04:41:12;;;;;;;2.63;1.30;;;11.00;92.20;;;;;;5053266;28;20025;-75
2021/05/16 04:43:38;;;;;;;1.52;1.30;;;11.10;92.20;;;;;;5052790;28;20216;-76
2021/05/16 04:46:03;;;;;;;2.60;1.50;;;11.10;92.20;;;;;;5053265;28;20024;-75
2021/05/16 04:48:29;;;;;;;1.83;1.10;;;11.00;92.20;;;;;;5053143;28;20039;-73
2021/05/16 04:50:56;;;;;;;2.17;1.20;;;11.00;92.10;;;;;;5052921;28;20067;-75
2021/05/16 04:53:21;;;;;;;1.35;0.90;;;11.10;92.20;;;;;;5056520;28;20021;-74
2021/05/16 04:55:47;;;;;;;1.17;0.80;;;11.00;92.10;;;;;;5053068;28;20028;-75
2021/05/16 04:58:12;;;;;;;2.30;1.40;;;11.10;92.10;;;;;;5052664;28;20025;-74
2021/05/16 05:00:38;;;;;;;1.92;1.00;;;11.10;92.10;;;;;;5053029;28;20025;-74
2021/05/16 05:03:03;;;;;;;2.83;1.27;;;11.10;92.10;;;;;;5053045;28;20388;-75
2021/05/16 05:05:30;;;;;;;3.83;1.85;;;11.10;92.10;;;;;;5054516;28;20036;-74
2021/05/16 05:07:55;;;;;;;1.48;1.20;;;11.10;92.10;;;;;;5057174;28;20013;-74
2021/05/16 05:10:21;;;;;;;2.67;1.42;;;11.10;92.10;;;;;;5056583;28;20040;-75
2021/05/16 05:12:46;;;;;;;2.30;1.55;;;11.10;92.10;;;;;;5056894;28;20032;-74
2021/05/16 05:15:12;;;;;;;3.28;1.48;;;11.10;92.10;;;;;;5056927;28;20029;-74
2021/05/16 05:17:41;;;;;;;2.15;1.20;;;11.10;92.10;;;;;;5057038;28;20124;-75
2021/05/16 05:20:08;;;;;;;2.50;1.50;;;11.10;92.10;;;;;;5057009;28;20028;-74
2021/05/16 05:22:34;;;;;;;2.58;1.45;;;11.10;92.10;;;;;;5056742;28;20078;-75
2021/05/16 05:24:59;;;;;;;2.50;1.73;;;11.10;92.10;;;;;;5056293;28;20100;-74
2021/05/16 05:27:25;;;;;;;1.88;1.40;;;11.10;92.00;;;;;;5056728;28;20025;-74
2021/05/16 05:29:50;;;;;;;2.28;1.58;;;11.20;92.00;;;;;;5055513;28;20032;-74
2021/05/16 05:32:16;;;;;;;1.92;1.20;;;11.20;92.00;;;;;;5056736;28;20025;-74
2021/05/16 05:34:41;;;;;;;2.70;1.30;;;11.20;92.00;;;;;;5056570;28;20028;-74
2021/05/16 05:37:07;;;;;;;3.28;1.55;;;11.10;91.90;;;;;;5056702;28;20021;-75
2021/05/16 05:39:32;;;;;;;1.52;1.40;;;11.10;92.00;;;;;;5056215;28;20095;-75
2021/05/16 05:41:58;;;;;;;1.40;1.10;;;11.10;92.00;;;;;;5056578;28;20021;-75
2021/05/16 05:44:23;;;;;;;1.38;1.00;;;11.10;92.10;;;;;;5056477;28;20473;-74
2021/05/16 05:46:49;;;;;;;1.95;1.30;;;11.10;92.10;;;;;;5056538;28;20096;-74
2021/05/16 05:49:15;;;;;;;1.88;1.30;;;11.10;92.00;;;;;;5056138;28;20076;-75
2021/05/16 05:51:40;;;;;;;2.00;1.15;;;11.20;92.00;;;;;;5056224;28;20108;-75
2021/05/16 05:54:06;;;;;;;1.90;1.30;;;11.20;92.00;;;;;;5055821;28;20389;-74
2021/05/16 05:56:31;;;;;;;1.67;1.25;;;11.20;91.90;;;;;;5056362;28;20099;-74
2021/05/16 05:58:57;;;;;;;1.15;1.08;;;11.20;91.90;;;;;;5056148;28;20025;-74
2021/05/16 06:01:22;;;;;;;1.23;1.00;;;11.20;91.90;;;;;;5056034;28;20021;-74
2021/05/16 06:03:49;;;;;;;2.55;1.15;;;11.20;92.00;;;;;;5056175;28;20461;-75
2021/05/16 06:06:15;;;;;;;2.15;1.17;;;11.30;91.90;;;;;;5056035;28;20516;-74
2021/05/16 06:08:40;;;;;;;2.08;1.25;;;11.30;92.10;;;;;;5055553;28;20465;-74
2021/05/16 06:11:06;;;;;;;3.40;1.92;;;11.30;91.90;;;;;;5055817;28;20040;-74
2021/05/16 06:13:31;;;;;;;1.70;1.20;;;11.30;91.90;;;;;;5055887;28;20151;-74
2021/05/16 06:15:57;;;;;;;2.10;1.40;;;11.30;91.90;;;;;;5055851;28;20100;-74
2021/05/16 06:18:23;;;;;;;2.67;1.60;;;11.30;91.90;;;;;;5054581;28;20024;-74
2021/05/16 06:20:49;;;;;;;1.58;1.20;;;11.30;91.90;;;;;;5054653;28;20031;-75
2021/05/16 06:23:17;;;;;;;2.05;1.85;;;11.40;91.90;;;;;;5055228;28;20473;-73
2021/05/16 06:25:43;;;;;;;3.13;2.33;;;11.40;91.80;;;;;;5055683;28;20576;-74
2021/05/16 06:28:08;;;;;;;2.47;1.52;;;11.50;91.80;;;;;;5055675;28;20103;-73
2021/05/16 06:30:34;;;;;;;2.13;1.20;;;11.50;91.80;;;;;;5055665;28;20033;-73
2021/05/16 06:32:59;;;;;;;3.22;1.50;;;11.50;91.80;;;;;;5055527;28;20096;-73
2021/05/16 06:35:25;;;;;;;2.63;1.67;;;11.60;91.70;;;;;;5055575;28;20388;-73
2021/05/16 06:37:50;;;;;;;2.80;1.75;;;11.70;91.70;;;;;;5055006;28;20373;-73
2021/05/16 06:40:16;;;;;;;2.70;1.77;;;11.70;91.70;;;;;;5055304;28;20556;-73
2021/05/16 06:42:42;;;;;;;2.67;1.60;;;11.70;91.70;;;;;;5055414;28;20480;-73
2021/05/16 06:45:10;;;;;;;3.55;2.03;;;11.70;91.70;;;;;;5055353;28;20036;-74
2021/05/16 06:47:35;;;;;;;2.42;1.70;;;11.70;91.70;;;;;;5055271;28;20063;-73
2021/05/16 06:50:01;;;;;;;2.35;1.77;;;11.80;91.70;;;;;;5054927;28;20056;-73
2021/05/16 06:52:26;;;;;;;3.22;1.77;;;11.80;91.60;;;;;;5054735;28;20029;-73
2021/05/16 06:54:52;;;;;;;3.58;1.83;;;11.90;91.60;;;;;;5058457;28;20100;-73
2021/05/16 06:57:18;;;;;;;2.45;1.80;;;11.90;91.90;;;;;;5055103;28;20028;-75
2021/05/16 06:59:45;;;;;;;3.05;1.73;;;12.00;91.60;;;;;;5055123;28;20036;-74
2021/05/16 07:02:11;;;;;;;2.33;1.42;;;12.00;91.50;;;;;;5055268;28;20299;-74
2021/05/16 07:04:36;;;;;;;5.20;2.28;;;12.10;91.50;;;;;;5054905;28;20028;-75
2021/05/16 07:07:02;;;;;;;3.70;1.98;;;12.20;91.40;;;;;;5054342;28;20385;-75
2021/05/16 07:09:28;;;;;;;3.15;1.90;;;12.20;91.50;;;;;;5054903;28;20029;-73
2021/05/16 07:11:54;;;;;;;2.08;1.33;;;12.20;91.50;;;;;;5054819;28;20033;-73
2021/05/16 07:14:19;;;;;;;1.88;1.55;;;12.30;91.50;;;;;;5054791;28;20481;-71
2021/05/16 07:16:45;;;;;;;3.80;2.00;;;12.50;91.40;;;;;;5054602;28;20032;-71
2021/05/16 07:19:11;;;;;;;2.80;1.90;;;12.60;91.30;;;;;;5054665;28;20021;-71
2021/05/16 07:21:36;;;;;;;3.72;1.60;;;12.50;91.20;;;;;;5054299;28;20048;-71
2021/05/16 07:24:05;;;;;;;2.00;1.50;;;12.50;91.30;;;;;;5054630;28;20035;-71
2021/05/16 07:26:31;;;;;;;6.88;4.05;;;12.60;91.30;;;;;;5054522;28;20477;-71
2021/05/16 07:28:57;;;;;;;2.88;1.63;;;12.60;91.20;;;;;;5053786;28;20053;-70
2021/05/16 07:31:22;;;;;;;3.33;2.22;;;12.60;91.50;;;;;;5054336;28;20039;-72
2021/05/16 07:33:48;;;;;;;2.53;1.60;;;12.60;91.30;;;;;;5054959;28;20051;-71
2021/05/16 07:36:14;;;;;;;3.42;2.20;;;12.50;91.20;;;;;;5053910;28;20105;-72
2021/05/16 07:38:39;;;;;;;3.15;1.73;;;12.50;91.20;;;;;;5054183;28;20025;-70
2021/05/16 07:41:05;;;;;;;2.53;1.67;;;12.50;91.30;;;;;;5054421;28;20381;-71
2021/05/16 07:43:30;;;;;;;2.70;1.80;;;12.50;91.30;;;;;;5054279;28;20373;-72
2021/05/16 07:45:56;;;;;;;2.60;1.60;;;12.50;91.20;;;;;;5054207;28;20040;-73
2021/05/16 07:48:28;;;;;;;3.67;1.98;;;12.40;91.30;;;;;;5053999;28;20028;-72
2021/05/16 07:50:57;;;;;;;2.40;1.60;;;12.40;91.30;;;;;;5051247;28;20103;-71
2021/05/16 07:53:23;;;;;;;;;;;12.40;91.30;;;;;;5054326;28;20027;-71
2021/05/16 07:55:49;;;;;;;1.88;1.60;;;12.30;91.30;;;;;;5053909;28;20280;-71
2021/05/16 07:58:15;;;;;;;2.03;1.20;;;12.30;91.40;;;;;;5053849;28;20028;-71
2021/05/16 08:00:40;;;;;;;1.48;1.20;;;12.20;91.70;;;;;;5053684;28;20027;-71
2021/05/16 08:03:06;;;;;;;1.45;1.25;;;12.30;91.40;;;;;;5054017;28;20420;-71
2021/05/16 08:05:31;;;;;;;1.90;1.27;;;12.30;91.50;;;;;;5053333;28;20036;-71
2021/05/16 08:07:58;;;;;;;2.28;1.63;;;12.30;91.40;;;;;;5053877;28;20109;-71
2021/05/16 08:10:23;;;;;;;2.72;1.92;;;12.40;91.30;;;;;;5053528;28;20108;-71
2021/05/16 08:12:50;;;;;;;3.50;2.00;;;12.60;91.30;;;;;;5053639;28;20569;-73
2021/05/16 08:15:16;;;;;;;2.25;1.60;;;12.60;91.20;;;;;;5053891;28;20461;-72
2021/05/16 08:17:42;;;;;;;2.75;1.77;;;12.70;91.20;;;;;;5053380;28;20056;-74
2021/05/16 08:20:09;;;;;;;2.97;1.88;;;12.80;91.00;;;;;;5051833;28;20159;-72
2021/05/16 08:22:35;;;;;;;2.65;1.95;;;12.90;91.10;;;;;;5053494;28;20365;-72
2021/05/16 08:25:03;;;;;;;2.50;1.70;;;13.00;91.00;;;;;;5035536;28;20017;-72
2021/05/16 08:27:28;;;;;;;3.60;2.33;;;13.20;90.90;;;;;;5053420;28;20040;-72
2021/05/16 08:29:54;;;;;;;3.42;1.92;;;13.20;90.80;;;;;;5053509;28;20404;-72
2021/05/16 08:32:20;;;;;;;4.68;3.15;;;13.20;90.80;;;;;;5053319;28;20040;-72
2021/05/16 08:34:45;;;;;;;4.07;2.45;;;13.20;90.80;;;;;;5052804;28;20017;-72
2021/05/16 08:37:12;;;;;;;4.15;2.50;;;13.10;90.90;;;;;;5053144;28;20027;-72
2021/05/16 08:39:37;;;;;;;2.92;2.10;;;13.00;91.00;;;;;;5052223;28;20028;-72
2021/05/16 08:42:03;;;;;;;3.67;2.53;;;13.00;91.10;;;;;;5053288;28;20029;-72
2021/05/16 08:44:33;;;;;;;4.22;2.47;;;13.00;91.10;;;;;;5053270;28;20021;-72
2021/05/16 08:47:00;;;;;;;;;;;13.00;91.10;;;;;;5053619;28;20033;-72
2021/05/16 08:49:25;;;;;;;4.03;2.22;;;13.10;91.10;;;;;;5051196;28;19948;-71
2021/05/16 08:51:51;;;;;;;3.13;2.40;;;13.30;91.10;;;;;;5052968;28;20072;-72
2021/05/16 08:54:18;;;;;;;3.55;2.30;;;13.40;90.90;;;;;;5056256;28;20044;-72
2021/05/16 08:56:48;;;;;;;3.13;1.83;;;13.50;90.80;;;;;;5053025;28;20032;-72
2021/05/16 08:59:14;;;;;;;4.05;2.20;;;13.50;90.80;;;;;;5053078;28;20469;-72
2021/05/16 09:01:47;;;;;;;4.43;2.75;;;13.60;90.80;;;;;;5053043;28;20102;-72
2021/05/16 09:04:35;;;;;;;5.07;3.42;;;13.70;90.80;;;;;;5052337;28;20025;-72
2021/05/16 09:07:02;;;;;;;4.20;2.30;;;13.90;90.70;;;;;;5052962;28;20032;-71
2021/05/16 09:09:39;;;;;;;3.95;2.40;;;14.10;90.70;;;;;;5053070;28;20052;-72
2021/05/16 09:12:12;;;;;;;3.85;2.53;;;14.40;90.60;;;;;;5052750;28;20036;-71
2021/05/16 09:14:51;;;;;;;4.05;2.28;;;14.60;90.40;;;;;;5052921;28;20013;-69
2021/05/16 09:17:31;;;;;;;3.63;2.70;;;14.50;90.40;;;;;;5052355;28;20070;-69
2021/05/16 09:20:11;;;;;;;4.40;2.63;;;14.60;90.40;;;;;;5052770;28;20127;-71
2021/05/16 09:22:36;;;;;;;;;;;14.60;90.40;;;;;;5053357;28;20025;-71
2021/05/16 09:25:09;;;;;;;3.95;2.47;;;14.50;90.40;;;;;;5052945;28;19911;-69
2021/05/16 09:27:36;;;;;;;3.78;2.60;;;14.60;90.50;;;;;;5052773;28;20535;-71
2021/05/16 09:30:20;;;;;;;4.43;3.28;;;14.50;90.50;;;;;;5052625;28;20362;-71
2021/05/16 09:32:51;;;;;;;4.43;2.55;;;14.70;90.50;;;;;;5052096;28;20108;-71
2021/05/16 09:35:17;;;;;;;3.10;2.22;;;14.70;90.50;;;;;;5052848;28;20021;-71
2021/05/16 09:38:04;;;;;;;2.80;2.13;;;14.80;90.50;;;;;;5052664;28;20496;-71
2021/05/16 09:40:41;;;;;;;3.20;2.42;;;15.00;90.60;;;;;;5052558;28;20021;-72
2021/05/16 09:43:13;;;;;;;3.38;2.05;;;15.20;90.40;;;;;;5052647;28;20070;-69
2021/05/16 09:46:02;;;;;;;2.65;2.28;;;15.10;90.40;;;;;;5052623;28;20086;-71
2021/05/16 09:48:39;;;;;;;2.42;1.90;;;15.00;90.40;;;;;;5052736;28;20412;-71
2021/05/16 09:51:07;;;;;;;2.58;2.20;;;15.10;90.60;;;;;;5053196;28;20045;-72
2021/05/16 09:53:44;;;;;;;5.10;2.47;;;15.20;90.40;;;;;;5056197;28;20100;-71
2021/05/16 09:56:34;;;;;;;3.35;2.13;;;15.40;90.30;;;;;;5056289;28;20036;-72
2021/05/16 09:59:02;;;;;;;5.15;2.88;;;15.60;90.30;;;;;;5056283;28;20447;-72
2021/05/16 10:01:28;;;;;;;2.67;1.92;;;15.70;90.20;;;;;;5055658;28;20384;-72
2021/05/16 10:03:56;;;;;;;2.97;2.10;;;15.80;90.20;;;;;;5055983;28;20279;-70
2021/05/16 10:06:23;;;;;;;3.30;2.05;;;15.90;90.20;;;;;;5056064;28;20029;-69
2021/05/16 10:08:49;;;;;;;3.90;2.00;;;16.20;90.10;;;;;;5055999;28;20028;-71
2021/05/16 10:11:20;;;;;;;4.05;2.30;;;16.20;90.20;;;;;;5055937;28;20428;-71
2021/05/16 10:13:51;;;;;;;3.50;2.22;;;16.10;90.00;;;;;;5055928;28;20523;-72
2021/05/16 10:16:17;;;;;;;3.60;2.58;;;15.90;90.00;;;;;;5055744;28;20016;-71
2021/05/16 10:18:45;;;;;;;3.65;2.50;;;15.80;90.10;;;;;;5055680;28;20017;-71
2021/05/16 10:21:11;;;;;;;2.90;1.85;;;15.70;90.40;;;;;;5055899;28;20025;-71
2021/05/16 10:23:38;;;;;;;2.72;2.08;;;15.70;90.30;;;;;;5055790;28;20017;-72
2021/05/16 10:26:17;;;;;;;3.33;2.17;;;15.70;90.40;;;;;;5055630;28;20033;-72
2021/05/16 10:29:17;;;;;;;2.47;1.80;;;15.90;90.40;;;;;;5055695;28;20101;-72
2021/05/16 10:31:47;;;;;;;;;;;16.20;90.20;;;;;;5055442;28;20107;-72
2021/05/16 10:34:28;;;;;;;1.77;1.38;;;16.20;90.10;;;;;;5037655;28;19912;-69
2021/05/16 10:36:58;;;;;;;2.08;1.60;;;16.20;89.90;;;;;;5055437;28;20445;-72
2021/05/16 10:39:39;;;;;;;2.45;1.80;;;16.10;90.00;;;;;;5055584;28;20067;-72
2021/05/16 10:42:15;;;;;;;1.95;1.70;;;15.90;90.00;;;;;;5055398;28;20021;-72
2021/05/16 10:44:55;;;;;;;1.58;1.40;;;15.80;90.20;;;;;;5055005;28;20024;-72
2021/05/16 10:47:52;;;;;;;3.65;1.80;;;15.60;90.40;;;;;;5053900;28;20445;-72
2021/05/16 10:50:24;;;;;;;1.23;1.13;;;15.70;90.40;;;;;;5055061;28;20055;-69
2021/05/16 10:53:15;;;;;;;2.22;1.50;;;15.90;90.50;;;;;;5055143;28;20366;-71
2021/05/16 10:55:46;;;;;;;1.20;1.10;;;16.20;90.20;;;;;;5058267;28;20020;-71
2021/05/16 10:58:37;;;;;;;1.38;1.25;;;16.40;90.10;;;;;;5055062;28;20017;-72
2021/05/16 11:01:11;;;;;;;1.33;1.15;;;16.60;89.90;;;;;;5055002;28;20426;-72
2021/05/16 11:04:11;;;;;;;0.90;0.90;;;16.60;89.80;;;;;;5054133;28;20028;-72
2021/05/16 11:06:39;;;;;;;2.05;1.35;;;16.70;89.90;;;;;;5005158;28;20080;-72
2021/05/16 11:09:07;;;;;;;1.27;0.90;;;16.60;89.80;;;;;;5054915;28;20025;-71
2021/05/16 11:11:51;;;;;;;1.95;1.25;;;16.40;89.90;;;;;;5053433;28;20029;-72
2021/05/16 11:14:34;;;;;;;2.28;1.58;;;16.40;90.20;;;;;;5054543;28;20423;-70
2021/05/16 11:17:02;;;;;;;2.13;1.42;;;16.60;90.10;;;;;;5054853;28;20033;-69
2021/05/16 11:19:30;;;;;;;2.30;1.58;;;16.70;90.10;;;;;;5054755;28;20032;-70
2021/05/16 11:21:56;;;;;;;1.50;1.30;;;16.70;90.10;;;;;;5054625;28;20052;-70
2021/05/16 11:24:44;;;;;;;1.70;1.50;;;16.60;90.10;;;;;;5054506;28;20021;-70
2021/05/16 11:27:19;;;;;;;1.83;1.10;;;16.60;90.30;;;;;;5054601;28;20025;-70
2021/05/16 11:29:45;;;;;;;1.13;1.00;;;17.00;90.30;;;;;;5054491;28;20478;-70
2021/05/16 11:32:11;;;;;;;1.60;1.38;;;17.80;89.90;;;;;;5054470;28;20032;-71
2021/05/16 11:34:37;;;;;;;1.00;1.00;;;18.40;88.00;;;;;;5054421;28;20025;-70
2021/05/16 11:37:19;;;;;;;1.40;1.25;;;18.30;87.70;;;;;;5036337;28;20063;-71
2021/05/16 11:39:45;;;;;;;1.25;1.05;;;17.80;88.40;;;;;;5054256;28;20048;-70
2021/05/16 11:42:10;;;;;;;2.05;1.10;;;17.40;89.50;;;;;;5052552;28;20021;-70
2021/05/16 11:44:36;;;;;;;1.15;1.05;;;17.00;90.00;;;;;;5054132;28;20057;-70
2021/05/16 11:47:02;;;;;;;1.65;1.10;;;16.50;90.30;;;;;;5054134;28;20028;-70
2021/05/16 11:49:30;;;;;;;2.50;1.83;;;16.10;90.60;;;;;;5047996;28;20095;-70
2021/05/16 11:52:00;;;;;;;3.17;1.63;;;15.60;90.40;;;;;;5034162;28;20045;-70
2021/05/16 11:54:43;;;;;;;1.95;1.33;;;14.70;90.60;;;;;;5034052;28;20017;-69
2021/05/16 11:57:15;;;;;;;2.20;1.63;;;14.10;91.10;;;;;;5033670;28;20034;-70
2021/05/16 11:59:41;;;;;;;2.10;1.30;;;13.80;91.60;;;;;;5033906;28;20018;-70
2021/05/16 12:02:08;;;;;;;1.20;0.90;;;13.60;91.80;;;;;;5033995;28;20029;-69
2021/05/16 12:04:38;;;;;;;2.13;1.50;;;13.80;91.80;;;;;;5033962;28;20025;-69
2021/05/16 12:07:04;;;;;;;1.58;0.95;;;13.90;91.50;;;;;;5033923;28;20049;-69
2021/05/16 12:09:37;;;;;;;1.17;1.08;;;13.90;91.30;;;;;;5033900;28;20053;-69
2021/05/16 12:12:03;;;;;;;1.60;1.40;;;13.90;91.10;;;;;;5015622;28;20037;-69
2021/05/16 12:14:32;;;;;;;1.50;1.25;;;13.80;91.10;;;;;;5033527;28;20380;-70
2021/05/16 12:17:00;;;;;;;1.60;1.33;;;13.80;91.30;;;;;;5033674;28;20029;-70
2021/05/16 12:19:28;;;;;;;0.80;0.60;;;14.10;91.20;;;;;;5033886;28;20363;-69
2021/05/16 12:21:56;;;;;;;0.90;0.70;;;14.30;90.90;;;;;;5033500;28;20111;-69
2021/05/16 12:24:24;;;;;;;2.20;1.48;;;14.50;90.90;;;;;;5033487;28;20465;-68
2021/05/16 12:26:50;;;;;;;1.52;1.35;;;14.90;90.70;;;;;;5033245;28;20466;-69
2021/05/16 12:29:17;;;;;;;1.55;1.23;;;15.40;90.30;;;;;;5033460;28;20022;-71
2021/05/16 12:31:44;;;;;;;1.40;1.30;;;15.60;90.30;;;;;;5033353;28;20095;-70
2021/05/16 12:34:11;;;;;;;2.20;1.35;;;15.90;90.00;;;;;;5033483;28;20032;-71
2021/05/16 12:36:58;;;;;;;1.30;1.10;;;16.20;90.00;;;;;;5033447;28;20075;-71
2021/05/16 12:39:40;;;;;;;0.70;0.70;;;16.50;89.70;;;;;;5033356;28;20021;-70
2021/05/16 12:42:33;;;;;;;0.77;0.70;;;16.40;89.70;;;;;;5033134;28;20040;-71
2021/05/16 12:45:22;;;;;;;2.15;1.20;;;16.20;90.10;;;;;;5033603;28;20485;-69
2021/05/16 12:47:58;;;;;;;0.93;0.82;;;16.10;90.20;;;;;;5033309;28;20068;-69
2021/05/16 12:50:34;;;;;;;1.13;0.93;;;16.10;90.40;;;;;;5040677;28;20065;-69
2021/05/16 12:53:24;;;;;;;1.48;1.00;;;16.30;90.30;;;;;;5053064;28;20041;-69